createdAt,value
2023-01-10T00:00:26.398Z,100744.40
2023-01-10T00:02:57.212Z,100749.91
2023-01-10T00:05:27.687Z,100757.21
2023-01-10T00:07:58.296Z,100760.63
2023-01-10T00:10:28.954Z,100762.09
2023-01-10T00:12:59.630Z,100773.56
2023-01-10T00:15:29.623Z,100779.21
2023-01-10T00:18:00.310Z,100782.23
2023-01-10T00:20:30.975Z,100785.29
2023-01-10T00:23:01.637Z,100791.84
2023-01-10T00:25:32.310Z,100792.82
2023-01-10T00:28:02.973Z,100801.02
2023-01-10T00:30:33.614Z,100807.77
2023-01-10T00:33:04.280Z,100808.01
2023-01-10T00:35:34.946Z,100813.11
2023-01-10T00:38:05.675Z,100826.32
2023-01-10T00:40:36.323Z,100829.77
2023-01-10T00:43:06.984Z,100829.26
2023-01-10T00:45:37.621Z,100827.09
2023-01-10T00:48:08.322Z,100838.87
2023-01-10T00:50:38.965Z,100846.53
2023-01-10T00:53:09.683Z,100849.86
2023-01-10T00:55:40.326Z,100856.21
2023-01-10T00:58:11.024Z,100859.51
2023-01-10T01:00:41.690Z,100867.69
2023-01-10T01:03:12.384Z,100871.88
2023-01-10T01:05:42.863Z,100881.24
2023-01-10T01:08:13.470Z,100884.90
2023-01-10T01:10:44.152Z,100889.05
2023-01-10T01:13:14.572Z,100894.48
2023-01-10T01:15:45.424Z,100896.96
2023-01-10T01:18:15.918Z,100902.18
2023-01-10T01:20:46.609Z,100908.95
2023-01-10T01:23:16.940Z,100914.80
2023-01-10T01:25:47.762Z,100918.76
2023-01-10T01:28:18.331Z,100923.52
2023-01-10T01:30:49.151Z,100929.42
2023-01-10T01:33:19.710Z,100935.41
2023-01-10T01:35:50.449Z,100937.25
2023-01-10T01:38:21.158Z,100939.99
2023-01-10T01:40:51.798Z,100939.18
2023-01-10T01:43:22.234Z,100943.57
2023-01-10T01:45:52.923Z,100948.00
2023-01-10T01:48:23.614Z,100951.87
2023-01-10T01:50:54.298Z,100952.44
2023-01-10T01:53:24.718Z,100952.52
2023-01-10T01:55:55.413Z,100954.23
2023-01-10T01:58:26.154Z,100959.41
2023-01-10T02:00:56.538Z,100966.42
2023-01-10T02:03:27.236Z,100970.03
2023-01-10T03:48:54.644Z,101078.28
2023-01-10T03:51:25.331Z,101083.42
2023-01-10T03:53:56.054Z,101090.70
2023-01-10T03:56:26.808Z,101093.69
2023-01-10T03:58:57.547Z,101095.16
2023-01-10T04:01:28.404Z,101093.54
2023-01-10T04:03:59.126Z,101097.90
2023-01-10T04:06:29.435Z,101097.65
2023-01-10T04:09:00.180Z,101093.91
2023-01-10T04:11:30.932Z,101094.99
2023-01-10T04:14:01.667Z,101098.52
2023-01-10T04:16:32.526Z,101096.95
2023-01-10T04:19:03.159Z,101103.70
2023-01-10T04:21:33.906Z,101105.34
2023-01-10T04:24:04.634Z,101106.29
2023-01-10T04:26:35.399Z,101112.71
2023-01-10T04:29:06.137Z,101115.15
2023-01-10T04:31:36.929Z,101116.80
2023-01-10T04:34:07.649Z,101115.85
2023-01-10T04:36:38.097Z,101118.45
2023-01-10T04:39:08.848Z,101120.82
2023-01-10T04:41:39.642Z,101122.85
2023-01-10T04:44:10.057Z,101128.95
2023-01-10T04:46:40.836Z,101133.28
2023-01-10T04:49:11.564Z,101135.33
2023-01-10T04:51:42.369Z,101136.83
2023-01-10T04:54:13.056Z,101139.87
2023-01-10T04:56:43.834Z,101146.25
2023-01-10T04:59:14.686Z,101155.32
2023-01-10T05:01:45.539Z,101154.74
2023-01-10T05:04:16.095Z,101154.73
2023-01-10T05:06:46.845Z,101156.26
2023-01-10T05:09:17.594Z,101160.11
2023-01-10T05:11:48.464Z,101172.31
2023-01-10T05:14:19.081Z,101176.74
2023-01-10T05:16:49.921Z,101179.91
2023-01-10T05:19:20.578Z,101183.24
2023-01-10T05:21:51.339Z,101184.61
2023-01-10T05:24:22.065Z,101189.29
2023-01-10T05:26:52.830Z,101193.64
2023-01-10T05:29:23.564Z,101193.98
2023-01-10T05:31:54.401Z,101202.34
2023-01-10T05:34:25.064Z,101202.57
2023-01-10T05:36:55.458Z,101206.33
2023-01-10T05:39:26.182Z,101210.62
2023-01-10T05:41:56.949Z,101207.28
2023-01-10T05:44:27.647Z,101210.57
2023-01-10T05:46:58.415Z,101211.31
2023-01-10T05:49:29.134Z,101215.68
2023-01-10T05:51:59.997Z,101225.15
2023-01-10T05:54:30.584Z,101226.35
2023-01-10T05:57:01.355Z,101226.57
2023-01-10T05:59:32.204Z,101227.69
2023-01-10T06:02:02.921Z,101224.85
2023-01-10T06:04:33.693Z,101232.69
2023-01-10T06:07:04.418Z,101236.58
2023-01-10T06:09:35.046Z,101240.76
2023-01-10T06:12:05.987Z,101244.70
2023-01-10T06:14:36.533Z,101250.44
2023-01-10T06:17:07.346Z,101253.48
2023-01-10T06:19:37.576Z,101265.66
2023-01-10T06:22:08.318Z,101260.47
2023-01-10T06:24:38.683Z,101264.30
2023-01-10T06:27:09.441Z,101270.58
2023-01-10T06:29:40.194Z,101275.26
2023-01-10T06:32:10.907Z,101274.64
2023-01-10T06:34:41.654Z,101273.19
2023-01-10T06:37:12.392Z,101278.02
2023-01-10T06:39:43.112Z,101275.33
2023-01-10T06:42:13.870Z,101282.02
2023-01-10T06:44:44.605Z,101290.56
2023-01-10T06:47:15.387Z,101295.77
2023-01-10T06:49:46.121Z,101300.28
2023-01-10T06:52:16.877Z,101308.27
2023-01-10T06:54:47.594Z,101306.09
2023-01-10T06:57:18.367Z,101290.12
2023-01-10T06:59:49.084Z,101281.62
2023-01-10T07:02:19.956Z,101292.48
2023-01-10T07:04:50.596Z,101296.08
2023-01-10T07:07:21.344Z,101295.30
2023-01-10T07:09:52.057Z,101302.15
2023-01-10T07:12:22.999Z,101300.16
2023-01-10T07:14:53.545Z,101311.96
2023-01-10T07:17:24.305Z,101322.23
2023-01-10T07:19:55.038Z,101321.51
2023-01-10T07:22:25.805Z,101323.23
2023-01-10T07:24:56.251Z,101327.77
2023-01-10T07:27:27.011Z,101336.61
2023-01-10T07:29:57.796Z,101336.19
2023-01-10T07:32:28.547Z,101338.30
2023-01-10T07:34:59.279Z,101353.77
2023-01-10T07:37:30.060Z,101359.47
2023-01-10T07:40:00.847Z,101353.42
2023-01-10T07:42:31.564Z,101357.75
2023-01-10T07:45:02.034Z,101361.70
2023-01-10T07:47:32.795Z,101363.51
2023-01-10T07:50:03.284Z,101369.20
2023-01-10T07:52:33.701Z,101374.85
2023-01-10T07:55:04.543Z,101377.28
2023-01-10T07:57:35.203Z,101378.15
2023-01-10T08:00:05.933Z,101380.86
2023-01-10T08:02:36.863Z,101383.88
2023-01-10T08:05:07.444Z,101389.25
2023-01-10T08:07:38.193Z,101392.86
2023-01-10T08:10:08.931Z,101384.16
2023-01-10T08:12:39.417Z,101384.53
2023-01-10T08:15:10.220Z,101390.38
2023-01-10T08:17:40.907Z,101393.58
2023-01-10T08:20:11.662Z,101399.64
2023-01-10T08:22:42.421Z,101397.83
2023-01-10T08:25:12.816Z,101398.34
2023-01-10T08:27:43.547Z,101403.42
2023-01-10T08:30:13.781Z,101405.19
2023-01-10T08:32:44.207Z,101408.66
2023-01-10T08:35:14.898Z,101414.67
2023-01-10T08:37:45.387Z,101414.79
2023-01-10T08:40:16.030Z,101410.00
2023-01-10T08:42:46.505Z,101412.66
2023-01-10T08:45:16.607Z,101416.70
2023-01-10T08:47:47.371Z,101420.58
2023-01-10T08:50:18.142Z,101422.93
2023-01-10T08:52:48.858Z,101422.90
2023-01-10T08:55:19.596Z,101425.56
2023-01-10T08:57:50.055Z,101427.55
2023-01-10T09:00:20.789Z,101435.30
2023-01-10T09:02:51.011Z,101436.84
2023-01-10T09:05:27.322Z,101438.56
2023-01-10T09:07:52.433Z,101445.01
2023-01-10T09:10:23.161Z,101447.60
2023-01-10T09:12:53.941Z,101449.26
2023-01-10T09:15:24.395Z,101449.06
2023-01-10T09:17:54.938Z,101444.96
2023-01-10T09:20:25.369Z,101445.41
2023-01-10T09:22:55.454Z,101442.17
2023-01-10T09:25:25.712Z,101442.70
2023-01-10T09:27:56.118Z,101448.62
2023-01-10T09:30:26.304Z,101444.32
2023-01-10T09:32:57.061Z,101455.09
2023-01-10T09:35:27.841Z,101461.64
2023-01-10T09:37:58.572Z,101467.90
2023-01-10T09:40:28.975Z,101471.34
2023-01-10T09:42:59.778Z,101472.75
2023-01-10T09:45:30.280Z,101470.78
2023-01-10T09:48:00.945Z,101474.12
2023-01-10T09:50:31.373Z,101482.19
2023-01-10T09:53:02.092Z,101475.15
2023-01-10T09:55:32.975Z,101475.49
2023-01-10T09:58:03.543Z,101470.48
2023-01-10T10:00:34.259Z,101469.23
2023-01-10T10:03:04.717Z,101473.62
2023-01-10T10:05:35.141Z,101471.34
2023-01-10T10:08:05.851Z,101470.67
2023-01-10T10:10:35.936Z,101468.55
2023-01-10T10:13:06.863Z,101470.98
2023-01-10T10:15:36.580Z,101468.20
2023-01-10T10:18:07.018Z,101470.66
2023-01-10T10:20:37.456Z,101466.45
2023-01-10T10:23:07.549Z,101468.49
2023-01-10T10:25:38.367Z,101466.51
2023-01-10T10:28:08.391Z,101466.92
2023-01-10T10:30:38.527Z,101470.07
2023-01-10T10:33:09.272Z,101466.87
2023-01-10T10:35:39.773Z,101472.36
2023-01-10T10:38:10.086Z,101472.85
2023-01-10T10:40:40.796Z,101471.31
2023-01-10T10:43:11.246Z,101470.12
2023-01-10T10:45:42.115Z,101464.91
2023-01-10T10:48:12.654Z,101462.43
2023-01-10T10:50:43.372Z,101461.37
2023-01-10T10:53:14.099Z,101465.17
2023-01-10T10:55:44.812Z,101468.52
2023-01-10T10:58:15.156Z,101460.45
2023-01-10T11:00:45.317Z,101452.93
2023-01-10T11:03:15.980Z,101450.02
2023-01-10T11:05:46.716Z,101448.70
2023-01-10T11:08:17.409Z,101447.39
2023-01-10T11:10:47.728Z,101444.72
2023-01-10T11:13:18.455Z,101447.24
2023-01-10T11:15:49.158Z,101449.80
2023-01-10T11:18:19.823Z,101451.57
2023-01-10T11:20:50.213Z,101447.13
2023-01-10T11:23:20.897Z,101441.82
2023-01-10T11:25:51.563Z,101446.11
2023-01-10T11:28:22.035Z,101442.58
2023-01-10T11:30:52.632Z,101446.00
2023-01-10T11:33:23.350Z,101441.35
2023-01-10T11:35:53.986Z,101439.39
2023-01-10T11:38:24.728Z,101436.11
2023-01-10T11:40:55.312Z,101439.64
2023-01-10T11:43:25.978Z,101437.69
2023-01-10T11:45:56.843Z,101429.36
2023-01-10T11:48:48.206Z,101429.49
2023-01-10T11:50:58.106Z,101430.03
2023-01-10T11:53:28.637Z,101427.48
2023-01-10T11:55:59.356Z,101427.27
2023-01-10T11:58:29.634Z,101425.96
2023-01-10T12:01:00.186Z,101430.10
2023-01-10T12:03:30.698Z,101427.19
2023-01-10T12:06:01.328Z,101422.75
2023-01-10T12:08:32.013Z,101420.94
2023-01-10T12:11:02.661Z,101417.23
2023-01-10T12:13:33.353Z,101412.96
2023-01-10T12:16:03.998Z,101411.15
2023-01-10T12:18:34.758Z,101416.65
2023-01-10T12:21:04.729Z,101418.45
2023-01-10T12:23:35.130Z,101417.71
2023-01-10T12:26:11.765Z,101415.73
2023-01-10T12:28:36.481Z,101409.55
2023-01-10T12:31:06.913Z,101409.71
2023-01-10T12:33:37.563Z,101408.82
2023-01-10T12:36:08.253Z,101406.07
2023-01-10T12:38:38.923Z,101402.73
2023-01-10T12:41:09.603Z,101400.25
2023-01-10T12:43:40.308Z,101392.34
2023-01-10T12:46:26.389Z,101390.35
2023-01-10T12:48:41.672Z,101383.83
2023-01-10T12:51:12.373Z,101384.16
2023-01-10T12:53:43.043Z,101383.64
2023-01-10T12:56:13.441Z,101379.25
2023-01-10T12:58:43.763Z,101380.03
2023-01-10T13:01:14.669Z,101376.33
2023-01-10T13:03:45.131Z,101371.91
2023-01-10T13:06:15.180Z,101365.47
2023-01-10T13:08:45.875Z,101370.23
2023-01-10T13:11:16.666Z,101361.20
2023-01-10T13:13:49.266Z,101357.40
2023-01-10T13:16:17.420Z,101355.59
2023-01-10T13:18:47.749Z,101356.12
2023-01-10T13:21:18.271Z,101354.54
2023-01-10T13:23:48.575Z,101351.63
2023-01-10T13:26:18.951Z,101344.95
2023-01-10T13:28:49.613Z,101343.23
2023-01-10T13:31:19.782Z,101340.43
2023-01-10T13:33:49.809Z,101333.76
2023-01-10T13:36:20.233Z,101337.77
2023-01-10T13:38:50.580Z,101342.34
2023-01-10T13:41:21.300Z,101338.56
2023-01-10T13:43:51.967Z,101337.04
2023-01-10T13:46:22.773Z,101333.72
2023-01-10T13:48:53.365Z,101340.03
2023-01-10T13:51:23.803Z,101330.60
2023-01-10T13:53:54.483Z,101334.69
2023-01-10T13:56:24.936Z,101333.60
2023-01-10T13:58:55.247Z,101329.90
2023-01-10T14:01:25.565Z,101327.02
2023-01-10T14:03:56.073Z,101321.44
2023-01-10T14:06:26.767Z,101322.40
2023-01-10T14:08:57.518Z,101320.20
2023-01-10T14:11:28.170Z,101314.25
2023-01-10T14:13:58.766Z,101307.96
2023-01-10T14:16:28.795Z,101302.73
2023-01-10T14:18:59.462Z,101295.19
2023-01-10T14:21:30.181Z,101290.85
2023-01-10T14:24:00.859Z,101283.50
2023-01-10T14:26:31.250Z,101277.07
2023-01-10T14:29:01.930Z,101270.90
2023-01-10T14:31:32.667Z,101262.34
2023-01-10T14:34:03.007Z,101259.18
2023-01-10T14:36:33.371Z,101256.58
2023-01-10T14:39:04.074Z,101250.02
2023-01-10T14:41:34.256Z,101247.16
2023-01-10T14:44:04.278Z,101243.98
2023-01-10T14:46:34.990Z,101244.37
2023-01-10T14:49:05.642Z,101241.55
2023-01-10T14:51:36.338Z,101235.76
2023-01-10T14:54:07.033Z,101229.54
2023-01-10T14:56:37.721Z,101223.91
2023-01-10T14:59:08.398Z,101219.54
2023-01-10T15:01:39.218Z,101214.25
2023-01-10T15:04:09.747Z,101206.04
2023-01-10T15:06:40.490Z,101210.63
2023-01-10T15:09:11.113Z,101206.66
2023-01-10T15:11:41.912Z,101202.03
2023-01-10T15:14:12.641Z,101199.69
2023-01-10T15:16:43.221Z,101195.31
2023-01-10T15:19:13.566Z,101188.94
2023-01-10T15:21:43.694Z,101179.96
2023-01-10T15:24:14.393Z,101179.97
2023-01-10T15:26:45.090Z,101182.87
2023-01-10T15:29:15.749Z,101172.27
2023-01-10T15:31:46.300Z,101166.96
2023-01-10T15:34:16.785Z,101161.34
2023-01-10T15:36:47.613Z,101155.10
2023-01-10T15:39:18.157Z,101151.95
2023-01-10T15:41:48.605Z,101148.30
2023-01-10T15:44:19.286Z,101140.45
2023-01-10T15:46:49.760Z,101136.21
2023-01-10T15:49:20.423Z,101137.97
2023-01-10T15:51:51.177Z,101131.27
2023-01-10T15:54:21.785Z,101130.58
2023-01-10T15:56:52.491Z,101121.44
2023-01-10T15:59:23.200Z,101110.33
2023-01-10T16:01:54.109Z,101117.10
2023-01-10T16:04:24.563Z,101114.40
2023-01-10T16:06:55.347Z,101117.58
2023-01-10T16:09:25.956Z,101111.33
2023-01-10T16:11:56.748Z,101114.16
2023-01-10T16:14:27.324Z,101106.23
2023-01-10T16:16:57.417Z,101100.85
2023-01-10T16:19:28.093Z,101096.60
2023-01-10T16:21:58.819Z,101096.23
2023-01-10T16:24:29.466Z,101089.74
2023-01-10T16:27:00.177Z,101086.78
2023-01-10T16:29:30.826Z,101082.81
2023-01-10T16:32:01.535Z,101075.52
2023-01-10T16:34:31.907Z,101075.60
2023-01-10T16:37:02.625Z,101076.09
2023-01-10T16:39:33.379Z,101067.05
2023-01-10T16:42:04.011Z,101061.27
2023-01-10T16:44:34.653Z,101053.52
2023-01-10T16:47:07.126Z,101052.66
2023-01-10T16:49:36.045Z,101046.94
2023-01-10T16:52:06.389Z,101046.59
2023-01-10T16:54:37.049Z,101043.53
2023-01-10T16:57:07.801Z,101034.14
2023-01-10T16:59:38.155Z,101025.16
2023-01-10T17:02:08.997Z,101027.91
2023-01-10T17:04:39.593Z,101019.90
2023-01-10T17:07:10.253Z,101021.30
2023-01-10T17:09:40.944Z,101015.47
2023-01-10T17:12:11.704Z,101011.19
2023-01-10T17:14:42.315Z,101006.04
2023-01-10T17:17:12.743Z,101000.33
2023-01-10T17:19:43.443Z,100989.46
2023-01-10T17:22:14.180Z,100978.30
2023-01-10T17:24:44.875Z,100970.70
2023-01-10T17:27:15.598Z,100953.67
2023-01-10T17:29:45.923Z,100944.05
2023-01-10T17:32:16.630Z,100933.66
2023-01-10T17:34:47.361Z,100925.88
2023-01-10T17:37:18.040Z,100919.54
2023-01-10T17:39:48.740Z,100906.78
2023-01-10T17:42:19.469Z,100915.34
2023-01-10T17:44:50.161Z,100897.99
2023-01-10T17:47:20.884Z,100890.94
2023-01-10T17:49:51.590Z,100883.39
2023-01-10T17:52:22.429Z,100886.25
2023-01-10T17:54:53.023Z,100883.46
2023-01-10T17:57:23.763Z,100885.54
2023-01-10T17:59:54.467Z,100887.61
2023-01-10T18:02:25.160Z,100884.28
2023-01-10T18:04:55.622Z,100883.04
2023-01-10T18:07:26.400Z,100884.02
2023-01-10T18:09:57.055Z,100871.64
2023-01-10T18:12:27.796Z,100869.44
2023-01-10T18:14:58.487Z,100871.57
2023-01-10T18:17:29.353Z,100857.35
2023-01-10T18:19:59.925Z,100848.84
2023-01-10T18:22:30.715Z,100862.01
2023-01-10T18:25:01.366Z,100854.99
2023-01-10T18:27:32.101Z,100833.92
2023-01-10T18:30:02.919Z,100829.50
2023-01-10T18:32:33.564Z,100822.44
2023-01-10T18:35:04.386Z,100829.48
2023-01-10T18:37:35.001Z,100833.10
2023-01-10T18:40:05.740Z,100826.19
2023-01-10T18:42:36.591Z,100818.84
2023-01-10T18:45:07.238Z,100810.08
2023-01-10T18:47:38.056Z,100797.83
2023-01-10T18:50:08.734Z,100797.09
2023-01-10T18:52:39.557Z,100801.89
2023-01-10T18:55:10.201Z,100786.54
2023-01-10T18:57:40.990Z,100784.36
2023-01-10T19:00:11.675Z,100801.80
2023-01-10T19:02:42.599Z,100797.38
2023-01-10T19:05:13.119Z,100795.79
2023-01-10T19:07:43.938Z,100784.61
2023-01-10T19:10:14.587Z,100776.20
2023-01-10T19:12:45.341Z,100772.08
2023-01-10T19:15:16.151Z,100766.08
2023-01-10T19:17:46.780Z,100767.65
2023-01-10T19:20:17.499Z,100760.82
2023-01-10T19:22:48.233Z,100749.09
2023-01-10T19:25:18.952Z,100748.30
2023-01-10T19:27:49.731Z,100748.52
2023-01-10T19:30:20.461Z,100744.68
2023-01-10T19:32:51.164Z,100733.41
2023-01-10T19:35:21.877Z,100719.65
2023-01-10T19:37:52.627Z,100725.02
2023-01-10T19:40:23.335Z,100711.56
2023-01-10T19:42:54.067Z,100708.89
2023-01-10T19:45:24.762Z,100702.29
2023-01-10T19:47:55.506Z,100692.19
2023-01-10T19:50:26.208Z,100690.01
2023-01-10T19:52:57.017Z,100685.33
2023-01-10T19:55:27.639Z,100685.20
2023-01-10T19:57:58.391Z,100682.78
2023-01-10T20:00:29.072Z,100688.60
2023-01-10T20:02:59.828Z,100677.22
2023-01-10T20:05:30.496Z,100680.40
2023-01-10T20:08:01.222Z,100678.87
2023-01-10T20:10:31.920Z,100679.21
2023-01-10T20:13:02.653Z,100675.89
2023-01-10T20:15:33.433Z,100671.17
2023-01-10T20:18:04.086Z,100668.49
2023-01-10T20:20:34.774Z,100665.99
2023-01-10T20:23:05.477Z,100668.64
2023-01-10T20:25:36.200Z,100669.13
2023-01-10T20:28:06.922Z,100665.88
2023-01-10T20:30:37.591Z,100655.04
2023-01-10T20:33:08.303Z,100646.27
2023-01-10T20:35:39.009Z,100648.77
2023-01-10T20:38:09.733Z,100645.14
2023-01-10T20:40:40.444Z,100646.35
2023-01-10T20:43:11.181Z,100641.48
2023-01-10T20:45:41.878Z,100638.49
2023-01-10T20:48:12.571Z,100637.92
2023-01-10T20:50:43.256Z,100643.60
2023-01-10T20:53:14.071Z,100643.79
2023-01-10T20:55:50.874Z,100649.67
2023-01-10T20:58:15.384Z,100645.03
2023-01-10T21:00:46.157Z,100647.38
2023-01-10T21:03:16.775Z,100642.12
2023-01-10T21:05:47.429Z,100641.52
2023-01-10T21:08:18.168Z,100623.07
2023-01-10T21:10:48.880Z,100619.93
2023-01-10T21:13:19.574Z,100615.56
2023-01-10T21:15:50.350Z,100627.70
2023-01-10T21:18:20.937Z,100608.72
2023-01-10T21:20:51.613Z,100607.54
2023-01-10T21:23:22.361Z,100619.63
2023-01-10T21:25:53.013Z,100616.08
2023-01-10T21:28:23.812Z,100610.04
2023-01-10T21:30:54.418Z,100622.99
2023-01-10T21:33:25.116Z,100615.08
2023-01-10T21:35:55.805Z,100599.90
2023-01-10T21:38:26.501Z,100602.29
2023-01-10T21:40:57.164Z,100612.40
2023-01-10T21:43:27.894Z,100591.81
2023-01-10T21:45:58.526Z,100590.30
2023-01-10T21:48:29.250Z,100585.40
2023-01-10T21:51:00.044Z,100575.01
2023-01-10T21:53:30.610Z,100575.74
2023-01-10T21:56:01.265Z,100580.88
2023-01-10T21:58:31.967Z,100553.87
2023-01-10T22:01:02.783Z,100557.93
2023-01-10T22:03:33.351Z,100570.87
2023-01-10T22:06:03.952Z,100560.68
2023-01-10T22:08:34.637Z,100536.80
2023-01-10T22:11:05.020Z,100548.30
2023-01-10T22:13:35.703Z,100546.61
2023-01-10T22:16:06.380Z,100552.91
2023-01-10T22:18:37.052Z,100555.92
2023-01-10T22:21:07.351Z,100535.72
2023-01-10T22:23:38.029Z,100526.95
2023-01-10T22:26:08.689Z,100526.74
2023-01-10T22:28:39.178Z,100522.72
2023-01-10T22:31:09.598Z,100523.71
2023-01-10T22:33:40.209Z,100524.24
2023-01-10T22:36:10.872Z,100531.27
2023-01-10T22:38:41.243Z,100515.65
2023-01-10T22:41:11.849Z,100505.78
2023-01-10T22:43:42.596Z,100506.84
2023-01-10T22:46:13.164Z,100508.68
2023-01-10T22:48:43.648Z,100498.03
2023-01-10T22:51:14.272Z,100486.88
2023-01-10T22:53:45.014Z,100488.88
2023-01-10T22:56:15.650Z,100487.14
2023-01-10T22:58:46.250Z,100479.34
2023-01-10T23:01:16.867Z,100480.84
2023-01-10T23:03:47.631Z,100479.13
2023-01-10T23:06:18.188Z,100474.14
2023-01-10T23:08:48.861Z,100467.12
2023-01-10T23:11:19.511Z,100474.23
2023-01-10T23:13:50.174Z,100469.42
2023-01-10T23:16:20.827Z,100466.80
2023-01-10T23:18:51.433Z,100460.51
2023-01-10T23:21:22.064Z,100459.56
2023-01-10T23:23:52.712Z,100460.32
2023-01-10T23:26:23.435Z,100462.98
2023-01-10T23:28:54.028Z,100455.20
2023-01-10T23:31:24.703Z,100446.03
2023-01-10T23:33:55.323Z,100444.61
2023-01-10T23:36:25.965Z,100435.15
2023-01-10T23:38:56.702Z,100441.64
2023-01-10T23:41:27.216Z,100431.51
2023-01-10T23:43:57.863Z,100429.53
2023-01-10T23:46:28.462Z,100433.29
2023-01-10T23:48:59.103Z,100427.48
2023-01-10T23:51:29.728Z,100433.58
2023-01-10T23:54:00.369Z,100427.62
2023-01-10T23:56:30.977Z,100434.42
2023-01-10T23:59:01.635Z,100430.41
